Troviken — C6ZT9 — position and weather

sailwx.info

Track history (hours):
 
Tides and Currents Weather Stations Pressure Air Temp Water Temp Dewpoint Dewpoint Depression Visibility Wind Speed Wind Dir Waves Ship Positions

Troviken

Last reported at 2017-May-27 00:48 UTC. Time now 2017-May-27 15:36 UTC.
Position N 26°29' W 079°47'.

Length 250 m; draft 10.7 m.

Type: Tanker. MMSI: 311066200.

Date/timePositionNaut miles runAvg speedWind from/ knotsBaromVisibWave heightAir tempDewpointWater temp
2017-May-27 00:48N 26°29' W 079°47'516.1
2017-May-27 00:30N 26°24' W 079°47'816.2
2017-May-27 00:01N 26°16' W 079°48'816.6
2017-May-26 23:30N 26°08' W 079°48'816.7
2017-May-26 23:00N 25°60' W 079°49'816.7
2017-May-26 22:30N 25°51' W 079°50'816.6
2017-May-26 22:01N 25°43' W 079°51'816.4
2017-May-26 21:30N 25°35' W 079°51'816.2
2017-May-26 21:00N 25°27' W 079°52'815.9
2017-May-26 20:30N 25°19' W 079°52'  
Track history (hours):
 
Tides and Currents Weather Stations Pressure Air Temp Water Temp Dewpoint Dewpoint Depression Visibility Wind Speed Wind Dir Waves Ship Positions

Troviken

Last reported at 2017-May-27 00:48 UTC. Time now 2017-May-27 15:36 UTC.
Position N 26°29' W 079°47'.

Length 250 m; draft 10.7 m.

Type: Tanker. MMSI: 311066200.

Date/timePositionNaut miles runAvg speedWind from/ knotsBaromVisibWave heightAir tempDewpointWater temp
2017-May-27 00:48N 26°29' W 079°47'516.1
2017-May-27 00:30N 26°24' W 079°47'816.2
2017-May-27 00:01N 26°16' W 079°48'816.6
2017-May-26 23:30N 26°08' W 079°48'816.7
2017-May-26 23:00N 25°60' W 079°49'816.7
2017-May-26 22:30N 25°51' W 079°50'816.6
2017-May-26 22:01N 25°43' W 079°51'816.4
2017-May-26 21:30N 25°35' W 079°51'816.2
2017-May-26 21:00N 25°27' W 079°52'815.9
2017-May-26 20:30N 25°19' W 079°52'  

Dump ship's entire track history